Aviation Digital Data Service (ADDS)

Output produced by METARs form (2217 UTC 24 March 2019)
found at http://www.aviationweather.gov/metar/data/
 
TAF MNBL 242020Z 2500/2524 08008KT 9999 SCT017 
     TEMPO 2505/2510 05006KT 8000 VCRA BKN017
       
MNMG 242020Z 2500/2524 12014KT 9999 FEW025 SCT300 
     TEMPO 2504/2508 10010KT CAVOK 
     BECMG 2510/2512 09008KT 9999 FEW020
       
TAF MNPC 242020Z 2500/2524 07012KT 7000 HZ SCT016 
     FM250200 05008KT 6000 VCRA/DZ BKN016TCU